Maersk Darmstadt — 9HYN7 — position and weather

sailwx.info

Track history (hours):
 
Tides and Currents Weather Stations Pressure Air Temp Water Temp Dewpoint Dewpoint Depression Visibility Wind Speed Wind Dir Waves Ship Positions

Maersk Darmstadt

Last reported at 2018-Feb-20 06:00 UTC. Time now 2018-Feb-21 05:43 UTC.
Position N 49°30' W 029°36'.

Type: Cargo ship. MMSI: 215724000.

Wind from 110 at 18 knots

Barometer 1019.1 mb
Air temperature 10.5 ° C
Visibility: greater than 2.2 NM
Dewpoint 0.2 ° C

Date/timePositionNaut miles runAvg speedWind from/ knotsBaromVisibWave heightAir tempDewpointWater temp
2018-Feb-20 06:00N 49°30' W 029°36'20617.2 110 / 181019.1 2.2 10.5 0.2
2018-Feb-19 18:00N 49°36' W 024°18'19115.9 200 / 141026.1 5.4 10.4-7.9
2018-Feb-19 06:00N 49°36' W 019°24'19916.6 270 / 241019.0 5.4 11.4-12.4
2018-Feb-18 18:00N 49°30' W 014°18'21017.5 230 / 191020.3 5.4 12.9 8.5
2018-Feb-18 06:00N 49°30' W 008°54'15918.6 270 / 181020.1 1.1 14.0 4.7
2018-Feb-17 21:24N 49°54' W 004°50'818.9
2018-Feb-17 21:00N 49°56' W 004°39'918.9
2018-Feb-17 20:30N 49°59' W 004°25'1118.4
2018-Feb-17 19:54N 50°03' W 004°09'718.1
2018-Feb-17 19:30N 50°05' W 003°58'917.8
2018-Feb-17 19:01N 50°08' W 003°45'1017.0
2018-Feb-17 18:27N 50°14' W 003°33'818.0
2018-Feb-17 18:01N 50°20' W 003°27'3182.1
2018-Feb-17 18:00N 50°18' W 003°24'611.9 240 / 151021.610.8 10.0 2.8
2018-Feb-17 17:30N 50°24' W 003°23'816.2
2018-Feb-17 17:00N 50°25' W 003°10'1020.1
2018-Feb-17 16:31N 50°25' W 002°54'1120.9
2018-Feb-17 16:00N 50°26' W 002°38'2122.3
2018-Feb-17 15:04N 50°26' W 002°05'122.8
2018-Feb-17 15:00N 50°26' W 002°03'1122.6
2018-Feb-17 14:30N 50°27' W 001°45'1122.4
2018-Feb-17 14:00N 50°27' W 001°27'1122.4
2018-Feb-17 13:30N 50°28' W 001°10'1121.8
2018-Feb-17 13:00N 50°28' W 000°53'1120.4
2018-Feb-17 12:29N 50°29' W 000°36'1119.2
2018-Feb-17 11:55N 50°31' W 000°19'819.0
2018-Feb-17 11:31N 50°32' W 000°07'917.9
2018-Feb-17 11:01N 50°32' E 000°07'917.6
2018-Feb-17 10:31N 50°34' E 000°21'917.4
2018-Feb-17 10:00N 50°35' E 000°34'917.5
2018-Feb-17 09:31N 50°40' E 000°46'918.7
2018-Feb-17 09:00N 50°46' E 000°58'1020.0
2018-Feb-17 08:30N 50°51' E 001°10'1121.4
2018-Feb-17 07:59N 50°59' E 001°23'1122.0
2018-Feb-17 07:30N 51°06' E 001°35'1121.6
2018-Feb-17 07:00N 51°14' E 001°47'1020.4
2018-Feb-17 06:31N 51°23' E 001°55'1019.3
2018-Feb-17 06:00N 51°30' E 002°06'1019.1
2018-Feb-17 05:30N 51°38' E 002°15'1018.6
2018-Feb-17 04:58N 51°46' E 002°25'2818.0
2018-Feb-17 03:26N 52°07' E 002°53'817.7
2018-Feb-17 03:00N 52°14' E 002°59'817.1
2018-Feb-17 02:30N 52°21' E 003°08'918.1
2018-Feb-17 02:00N 52°28' E 003°17'1018.7
2018-Feb-17 01:29N 52°35' E 003°28'2519.4
2018-Feb-17 00:11N 52°55' E 003°54'619.8
2018-Feb-16 23:53N 52°59' E 004°01'819.9
2018-Feb-16 23:29N 53°03' E 004°12'1219.8
2018-Feb-16 22:52N 53°12' E 004°26'819.9
2018-Feb-16 22:29N 53°19' E 004°31'12317.1
2018-Feb-16 15:16N 53°53' E 007°50'311.2
2018-Feb-16 15:00N 53°52' E 007°56'916.6
2018-Feb-16 14:29N 53°48' E 008°08'817.7
2018-Feb-16 14:01N 53°42' E 008°19'815.9
2018-Feb-16 13:30N 53°37' E 008°29'2 4.6
2018-Feb-16 12:59N 53°35' E 008°32'0 0.0
2018-Feb-16 12:29N 53°35' E 008°32'0 0.0
2018-Feb-16 11:59N 53°35' E 008°32'0 0.0
2018-Feb-16 11:30N 53°35' E 008°32'0 0.0
2018-Feb-16 11:00N 53°35' E 008°32'0 0.0
2018-Feb-16 10:30N 53°35' E 008°32'0 0.0
2018-Feb-16 10:00N 53°35' E 008°32'0 0.0
2018-Feb-16 09:30N 53°35' E 008°32'0 0.0
2018-Feb-16 09:00N 53°35' E 008°32'0 0.0
2018-Feb-16 08:30N 53°35' E 008°32'0 0.0
2018-Feb-16 08:00N 53°35' E 008°32'0 0.0
2018-Feb-16 07:30N 53°35' E 008°32'0 0.0
2018-Feb-16 07:00N 53°35' E 008°32'0 0.0
2018-Feb-16 06:27N 53°35' E 008°32'0 0.0
2018-Feb-16 06:00N 53°35' E 008°32'0 0.0
2018-Feb-16 05:30N 53°35' E 008°32'0 0.0
2018-Feb-16 05:00N 53°35' E 008°32'0 0.0
2018-Feb-16 04:30N 53°35' E 008°32'0 0.0
2018-Feb-16 04:00N 53°35' E 008°32'0 0.0
2018-Feb-16 03:30N 53°35' E 008°32'0 0.0
2018-Feb-16 03:00N 53°35' E 008°32'0 0.0
2018-Feb-16 02:30N 53°35' E 008°32'0 0.0
2018-Feb-16 02:00N 53°35' E 008°32'0 0.0
2018-Feb-16 01:30N 53°35' E 008°32'0 0.0
2018-Feb-16 01:00N 53°35' E 008°32'0 0.0
2018-Feb-16 00:29N 53°35' E 008°32'0 0.0
2018-Feb-15 23:59N 53°35' E 008°32'0 0.0
2018-Feb-15 23:29N 53°35' E 008°32'0 0.0
2018-Feb-15 22:59N 53°35' E 008°32'0 0.0
2018-Feb-15 22:29N 53°35' E 008°32'0 0.0
2018-Feb-15 21:59N 53°35' E 008°32'0 0.0
2018-Feb-15 21:29N 53°35' E 008°32'0 0.0
2018-Feb-15 20:59N 53°35' E 008°32'0 0.0
2018-Feb-15 20:29N 53°35' E 008°32'0 0.0
2018-Feb-15 19:59N 53°35' E 008°32'0 0.0
2018-Feb-15 19:29N 53°35' E 008°32'0 0.0
2018-Feb-15 18:59N 53°35' E 008°32'0 0.0
2018-Feb-15 18:29N 53°35' E 008°32'0 0.0
2018-Feb-15 17:58N 53°35' E 008°32'0 0.0
2018-Feb-15 17:31N 53°35' E 008°32'0 0.0
2018-Feb-15 16:59N 53°35' E 008°32'0 0.0
2018-Feb-15 16:30N 53°35' E 008°32'0 0.0
2018-Feb-15 16:00N 53°35' E 008°32'0 0.0
2018-Feb-15 15:30N 53°35' E 008°32'0 0.0
2018-Feb-15 15:00N 53°35' E 008°32'0 0.0
2018-Feb-15 14:30N 53°35' E 008°32'0 0.0
2018-Feb-15 14:00N 53°35' E 008°32'0 0.0
2018-Feb-15 13:30N 53°35' E 008°32'0 0.0
2018-Feb-15 13:00N 53°35' E 008°32'0 0.0
2018-Feb-15 12:30N 53°35' E 008°32'0 0.0
2018-Feb-15 12:00N 53°35' E 008°32'0 0.0
2018-Feb-15 11:30N 53°35' E 008°32'0 0.0
2018-Feb-15 11:00N 53°35' E 008°32'0 0.0
2018-Feb-15 10:28N 53°35' E 008°32'0 0.0
2018-Feb-15 09:58N 53°35' E 008°32'0 0.0
2018-Feb-15 09:28N 53°35' E 008°32'0 0.0
2018-Feb-15 08:58N 53°35' E 008°32'0 0.8
2018-Feb-15 08:30N 53°35' E 008°31'4 8.5
2018-Feb-15 08:00N 53°38' E 008°26'816.7
2018-Feb-15 07:30N 53°44' E 008°15'917.3
2018-Feb-15 07:00N 53°50' E 008°05'915.3
2018-Feb-15 06:25N 53°52' E 007°50'4 9.2
2018-Feb-15 06:00N 53°53' E 007°44'9316.9
2018-Feb-15 00:28N 53°31' E 005°11'817.7
2018-Feb-15 00:00N 53°29' E 004°57'918.4
2018-Feb-14 23:30N 53°25' E 004°44'1118.7
2018-Feb-14 22:53N 53°15' E 004°34'919.2
2018-Feb-14 22:27N 53°07' E 004°28'1019.2
2018-Feb-14 21:56N 52°59' E 004°20'819.3
2018-Feb-14 21:30N 52°51' E 004°13'1318.6
2018-Feb-14 20:49N 52°41' E 004°00'818.7
2018-Feb-14 20:24N 52°35' E 003°52'1618.9
2018-Feb-14 19:33N 52°22' E 003°37'119.3
2018-Feb-14 19:30N 52°21' E 003°37'1018.7
2018-Feb-14 18:58N 52°12' E 003°30'1119.6
2018-Feb-14 18:26N 52°02' E 003°26'1020.0
2018-Feb-14 17:55N 51°52' E 003°20'718.3
2018-Feb-14 17:30N 51°45' E 003°15'5 9.8
2018-Feb-14 17:00N 51°41' E 003°12'917.4
2018-Feb-14 16:28N 51°32' E 003°07'817.1
2018-Feb-14 16:00N 51°26' E 002°59'714.3
2018-Feb-14 15:30N 51°24' E 003°10'815.4
2018-Feb-14 15:01N 51°25' E 003°23'714.0
2018-Feb-14 14:31N 51°26' E 003°34'5 9.9
2018-Feb-14 14:00N 51°26' E 003°42'713.2
2018-Feb-14 13:30N 51°21' E 003°49'611.1
2018-Feb-14 13:00N 51°23' E 003°57'4 7.1
2018-Feb-14 12:30N 51°25' E 004°02'4 8.8
2018-Feb-14 12:00N 51°22' E 004°07'4 8.1
2018-Feb-14 11:30N 51°24' E 004°13'4 7.5
2018-Feb-14 11:00N 51°20' E 004°16'0 0.9
2018-Feb-14 10:29N 51°20' E 004°17'0 0.0
2018-Feb-14 10:01N 51°20' E 004°17'0 0.0
2018-Feb-14 09:30N 51°20' E 004°17'0 0.0
2018-Feb-14 08:58N 51°20' E 004°17'0 0.0
2018-Feb-14 08:25N 51°20' E 004°17'0 0.0
2018-Feb-14 08:01N 51°20' E 004°17'0 0.0
2018-Feb-14 07:30N 51°20' E 004°17'0 0.0
2018-Feb-14 07:01N 51°20' E 004°17'0 0.0
2018-Feb-14 06:29N 51°20' E 004°17'0 0.0
2018-Feb-14 06:01N 51°20' E 004°17'0 0.0
2018-Feb-14 05:30N 51°20' E 004°17'0 0.0
2018-Feb-14 05:00N 51°20' E 004°17'0 0.0
2018-Feb-14 04:31N 51°20' E 004°17'0 0.0
2018-Feb-14 03:58N 51°20' E 004°17'0 0.0
2018-Feb-14 03:30N 51°20' E 004°17'0 0.0
2018-Feb-14 03:00N 51°20' E 004°17'0 0.0
2018-Feb-14 02:31N 51°20' E 004°17'0 0.0
2018-Feb-14 02:00N 51°20' E 004°17'0 0.0
2018-Feb-14 01:31N 51°20' E 004°17'0 0.0
2018-Feb-14 01:00N 51°20' E 004°17'0 0.0
2018-Feb-14 00:30N 51°20' E 004°17'0 0.0
2018-Feb-13 23:57N 51°20' E 004°17'0 0.0
2018-Feb-13 23:31N 51°20' E 004°17'0 0.0
2018-Feb-13 23:00N 51°20' E 004°17'0 0.0
2018-Feb-13 22:31N 51°20' E 004°17'0 0.0
2018-Feb-13 22:00N 51°20' E 004°17'0 0.0
2018-Feb-13 21:27N 51°20' E 004°17'0 0.0
2018-Feb-13 21:01N 51°20' E 004°17'0 0.0
2018-Feb-13 20:30N 51°20' E 004°17'0 0.0
2018-Feb-13 20:00N 51°20' E 004°17'0 0.0
2018-Feb-13 19:31N 51°20' E 004°17'0 0.0
2018-Feb-13 19:00N 51°20' E 004°17'0 0.0
2018-Feb-13 18:31N 51°20' E 004°17'0 0.0
2018-Feb-13 17:57N 51°20' E 004°17'0 0.0
2018-Feb-13 17:30N 51°20' E 004°17'0 0.0
2018-Feb-13 17:01N 51°20' E 004°17'0 0.0
2018-Feb-13 16:28N 51°20' E 004°17'0 0.0
2018-Feb-13 16:01N 51°20' E 004°17'0 0.0
2018-Feb-13 15:30N 51°20' E 004°17'0 0.0
2018-Feb-13 14:59N 51°20' E 004°17'0 0.0
2018-Feb-13 14:30N 51°20' E 004°17'0 0.0
2018-Feb-13 14:01N 51°20' E 004°17'0 0.0
2018-Feb-13 13:31N 51°20' E 004°17'0 0.0
2018-Feb-13 13:01N 51°20' E 004°17'0 0.0
2018-Feb-13 12:30N 51°20' E 004°17'0 0.0
2018-Feb-13 12:01N 51°20' E 004°17'0 0.0
2018-Feb-13 11:31N 51°20' E 004°17'0 0.0
2018-Feb-13 11:01N 51°20' E 004°17'0 0.0
2018-Feb-13 10:31N 51°20' E 004°17'0 0.0
2018-Feb-13 10:01N 51°20' E 004°17'0 0.0
2018-Feb-13 09:28N 51°20' E 004°17'0 0.0
2018-Feb-13 09:01N 51°20' E 004°17'0 0.3
2018-Feb-13 08:30N 51°20' E 004°16'2 4.3
2018-Feb-13 08:00N 51°21' E 004°14'3 6.3
2018-Feb-13 07:30N 51°23' E 004°09'5 9.5
2018-Feb-13 07:00N 51°24' E 004°02'4 7.4
2018-Feb-13 06:30N 51°23' E 003°57'611.1
2018-Feb-13 06:00N 51°21' E 003°48'611.0
2018-Feb-13 05:30N 51°25' E 003°42'510.7
2018-Feb-13 05:00N 51°26' E 003°34'510.2
2018-Feb-13 04:30N 51°25' E 003°26'815.9
2018-Feb-13 04:00N 51°24' E 003°13'816.6
2018-Feb-13 03:30N 51°24' E 002°60'917.8
2018-Feb-13 03:00N 51°22' E 002°46'610.9
2018-Feb-13 02:29N 51°22' E 002°37'715.3
2018-Feb-13 02:00N 51°21' E 002°25'816.5
2018-Feb-13 01:30N 51°16' E 002°14'816.3
2018-Feb-13 01:00N 51°13' E 002°02'816.6
2018-Feb-13 00:30N 51°09' E 001°51'916.9
2018-Feb-13 00:00N 51°03' E 001°41'918.6
2018-Feb-12 23:30N 50°56' E 001°31'1018.9
2018-Feb-12 23:00N 50°47' E 001°25'1316.8
2018-Feb-12 22:12N 50°37' E 001°11'3117.7
2018-Feb-12 20:27N 50°24' E 000°27'818.8
2018-Feb-12 20:00N 50°23' E 000°14'919.1
2018-Feb-12 19:30N 50°21' W 000°00'1019.1
2018-Feb-12 19:00N 50°19' W 000°15'1019.4
2018-Feb-12 18:30N 50°18' W 000°30'1316.7
2018-Feb-12 17:45N 50°26' W 000°46'418.1
2018-Feb-12 17:30N 50°30' W 000°50'917.5
2018-Feb-12 17:00N 50°38' W 000°55'611.4
2018-Feb-12 16:31N 50°43' W 000°60'816.0
2018-Feb-12 16:01N 50°46' W 001°11'5 9.6
2018-Feb-12 15:30N 50°49' W 001°17'5 9.2
2018-Feb-12 15:01N 50°52' W 001°22'3 6.7
2018-Feb-12 14:30N 50°54' W 001°26'1 1.0
2018-Feb-12 13:55N 50°54' W 001°27'0 0.0
2018-Feb-12 13:30N 50°54' W 001°27'0 0.0
2018-Feb-12 12:59N 50°54' W 001°27'0 0.0
2018-Feb-12 12:29N 50°54' W 001°27'0 0.0
2018-Feb-12 11:47N 50°54' W 001°27'0 0.0
2018-Feb-12 11:18N 50°54' W 001°27'0 0.0
2018-Feb-12 10:57N 50°54' W 001°27'0 0.0
2018-Feb-12 10:30N 50°54' W 001°27'0 0.0
2018-Feb-12 09:59N 50°54' W 001°27'0 0.0
2018-Feb-12 09:26N 50°54' W 001°27'0 0.0
2018-Feb-12 08:59N 50°54' W 001°27'0 0.0
2018-Feb-12 08:26N 50°54' W 001°27'0 0.0
2018-Feb-12 07:59N 50°54' W 001°27'0 0.0
2018-Feb-12 07:26N 50°54' W 001°27'0 0.0
2018-Feb-12 06:59N 50°54' W 001°27'0 0.0
2018-Feb-12 06:05N 50°54' W 001°27'0 0.0
2018-Feb-12 04:47N 50°54' W 001°27'0 0.0
2018-Feb-12 04:23N 50°54' W 001°27'0 0.0
2018-Feb-12 03:53N 50°54' W 001°27'0 0.0
2018-Feb-12 03:23N 50°54' W 001°27'0 0.0
2018-Feb-12 02:53N 50°54' W 001°27'0 0.0
2018-Feb-12 02:23N 50°54' W 001°27'0 0.0
2018-Feb-12 01:53N 50°54' W 001°27'0 0.0
2018-Feb-12 01:20N 50°54' W 001°27'0 0.0
2018-Feb-12 00:53N 50°54' W 001°27'0 0.0
2018-Feb-12 00:20N 50°54' W 001°27'0 0.0
2018-Feb-11 23:53N 50°54' W 001°27'0 0.0
2018-Feb-11 23:26N 50°54' W 001°27'1 3.1
2018-Feb-11 23:00N 50°54' W 001°25'4 8.1
2018-Feb-11 22:30N 50°51' W 001°21'5 9.3
2018-Feb-11 22:01N 50°47' W 001°19'815.1
2018-Feb-11 21:31N 50°45' W 001°07'714.1
2018-Feb-11 21:01N 50°41' W 000°58'510.8
2018-Feb-11 20:31N 50°36' W 000°58'5 9.8
2018-Feb-11 20:01N 50°31' W 001°01'612.1
2018-Feb-11 19:30N 50°28' W 001°09'815.9
2018-Feb-11 19:00N 50°26' W 001°21'1016.2
2018-Feb-11 18:25N 50°23' W 001°35'717.3
2018-Feb-11 18:00N 50°21' W 001°46'4234.9
2018-Feb-11 18:00N 50°18' W 001°42'3423.2 280 / 151010.110.8 5.5-13.6
2018-Feb-11 16:33N 50°12' W 002°34'320.7
2018-Feb-11 16:24N 50°11' W 002°38'820.6
2018-Feb-11 15:59N 50°09' W 002°51'1020.5
2018-Feb-11 15:31N 50°06' W 003°06'1121.1
2018-Feb-11 15:01N 50°03' W 003°21'1121.0
2018-Feb-11 14:30N 49°60' W 003°37'1021.0
2018-Feb-11 14:00N 49°57' W 003°53'1120.8
2018-Feb-11 13:29N 49°54' W 004°09'1020.7
2018-Feb-11 13:00N 49°51' W 004°23'50816.4
2018-Feb-10 06:00N 49°42' W 017°30'   260 / 181012.9 14.0 9.7
Track history (hours):
 
Tides and Currents Weather Stations Pressure Air Temp Water Temp Dewpoint Dewpoint Depression Visibility Wind Speed Wind Dir Waves Ship Positions

Maersk Darmstadt

Last reported at 2018-Feb-20 06:00 UTC. Time now 2018-Feb-21 05:43 UTC.
Position N 49°30' W 029°36'.

Type: Cargo ship. MMSI: 215724000.

Wind from 110 at 18 knots

Barometer 1019.1 mb
Air temperature 10.5 ° C
Visibility: greater than 2.2 NM
Dewpoint 0.2 ° C

Date/timePositionNaut miles runAvg speedWind from/ knotsBaromVisibWave heightAir tempDewpointWater temp
2018-Feb-20 06:00N 49°30' W 029°36'20617.2 110 / 181019.1 2.2 10.5 0.2
2018-Feb-19 18:00N 49°36' W 024°18'19115.9 200 / 141026.1 5.4 10.4-7.9
2018-Feb-19 06:00N 49°36' W 019°24'19916.6 270 / 241019.0 5.4 11.4-12.4
2018-Feb-18 18:00N 49°30' W 014°18'21017.5 230 / 191020.3 5.4 12.9 8.5
2018-Feb-18 06:00N 49°30' W 008°54'15918.6 270 / 181020.1 1.1 14.0 4.7
2018-Feb-17 21:24N 49°54' W 004°50'818.9
2018-Feb-17 21:00N 49°56' W 004°39'918.9
2018-Feb-17 20:30N 49°59' W 004°25'1118.4
2018-Feb-17 19:54N 50°03' W 004°09'718.1
2018-Feb-17 19:30N 50°05' W 003°58'917.8
2018-Feb-17 19:01N 50°08' W 003°45'1017.0
2018-Feb-17 18:27N 50°14' W 003°33'818.0
2018-Feb-17 18:01N 50°20' W 003°27'3182.1
2018-Feb-17 18:00N 50°18' W 003°24'611.9 240 / 151021.610.8 10.0 2.8
2018-Feb-17 17:30N 50°24' W 003°23'816.2
2018-Feb-17 17:00N 50°25' W 003°10'1020.1
2018-Feb-17 16:31N 50°25' W 002°54'1120.9
2018-Feb-17 16:00N 50°26' W 002°38'2122.3
2018-Feb-17 15:04N 50°26' W 002°05'122.8
2018-Feb-17 15:00N 50°26' W 002°03'1122.6
2018-Feb-17 14:30N 50°27' W 001°45'1122.4
2018-Feb-17 14:00N 50°27' W 001°27'1122.4
2018-Feb-17 13:30N 50°28' W 001°10'1121.8
2018-Feb-17 13:00N 50°28' W 000°53'1120.4
2018-Feb-17 12:29N 50°29' W 000°36'1119.2
2018-Feb-17 11:55N 50°31' W 000°19'819.0
2018-Feb-17 11:31N 50°32' W 000°07'917.9
2018-Feb-17 11:01N 50°32' E 000°07'917.6
2018-Feb-17 10:31N 50°34' E 000°21'917.4
2018-Feb-17 10:00N 50°35' E 000°34'917.5
2018-Feb-17 09:31N 50°40' E 000°46'918.7
2018-Feb-17 09:00N 50°46' E 000°58'1020.0
2018-Feb-17 08:30N 50°51' E 001°10'1121.4
2018-Feb-17 07:59N 50°59' E 001°23'1122.0
2018-Feb-17 07:30N 51°06' E 001°35'1121.6
2018-Feb-17 07:00N 51°14' E 001°47'1020.4
2018-Feb-17 06:31N 51°23' E 001°55'1019.3
2018-Feb-17 06:00N 51°30' E 002°06'1019.1
2018-Feb-17 05:30N 51°38' E 002°15'1018.6
2018-Feb-17 04:58N 51°46' E 002°25'2818.0
2018-Feb-17 03:26N 52°07' E 002°53'817.7
2018-Feb-17 03:00N 52°14' E 002°59'817.1
2018-Feb-17 02:30N 52°21' E 003°08'918.1
2018-Feb-17 02:00N 52°28' E 003°17'1018.7
2018-Feb-17 01:29N 52°35' E 003°28'2519.4
2018-Feb-17 00:11N 52°55' E 003°54'619.8
2018-Feb-16 23:53N 52°59' E 004°01'819.9
2018-Feb-16 23:29N 53°03' E 004°12'1219.8
2018-Feb-16 22:52N 53°12' E 004°26'819.9
2018-Feb-16 22:29N 53°19' E 004°31'12317.1
2018-Feb-16 15:16N 53°53' E 007°50'311.2
2018-Feb-16 15:00N 53°52' E 007°56'916.6
2018-Feb-16 14:29N 53°48' E 008°08'817.7
2018-Feb-16 14:01N 53°42' E 008°19'815.9
2018-Feb-16 13:30N 53°37' E 008°29'2 4.6
2018-Feb-16 12:59N 53°35' E 008°32'0 0.0
2018-Feb-16 12:29N 53°35' E 008°32'0 0.0
2018-Feb-16 11:59N 53°35' E 008°32'0 0.0
2018-Feb-16 11:30N 53°35' E 008°32'0 0.0
2018-Feb-16 11:00N 53°35' E 008°32'0 0.0
2018-Feb-16 10:30N 53°35' E 008°32'0 0.0
2018-Feb-16 10:00N 53°35' E 008°32'0 0.0
2018-Feb-16 09:30N 53°35' E 008°32'0 0.0
2018-Feb-16 09:00N 53°35' E 008°32'0 0.0
2018-Feb-16 08:30N 53°35' E 008°32'0 0.0
2018-Feb-16 08:00N 53°35' E 008°32'0 0.0
2018-Feb-16 07:30N 53°35' E 008°32'0 0.0
2018-Feb-16 07:00N 53°35' E 008°32'0 0.0
2018-Feb-16 06:27N 53°35' E 008°32'0 0.0
2018-Feb-16 06:00N 53°35' E 008°32'0 0.0
2018-Feb-16 05:30N 53°35' E 008°32'0 0.0
2018-Feb-16 05:00N 53°35' E 008°32'0 0.0
2018-Feb-16 04:30N 53°35' E 008°32'0 0.0
2018-Feb-16 04:00N 53°35' E 008°32'0 0.0
2018-Feb-16 03:30N 53°35' E 008°32'0 0.0
2018-Feb-16 03:00N 53°35' E 008°32'0 0.0
2018-Feb-16 02:30N 53°35' E 008°32'0 0.0
2018-Feb-16 02:00N 53°35' E 008°32'0 0.0
2018-Feb-16 01:30N 53°35' E 008°32'0 0.0
2018-Feb-16 01:00N 53°35' E 008°32'0 0.0
2018-Feb-16 00:29N 53°35' E 008°32'0 0.0
2018-Feb-15 23:59N 53°35' E 008°32'0 0.0
2018-Feb-15 23:29N 53°35' E 008°32'0 0.0
2018-Feb-15 22:59N 53°35' E 008°32'0 0.0
2018-Feb-15 22:29N 53°35' E 008°32'0 0.0
2018-Feb-15 21:59N 53°35' E 008°32'0 0.0
2018-Feb-15 21:29N 53°35' E 008°32'0 0.0
2018-Feb-15 20:59N 53°35' E 008°32'0 0.0
2018-Feb-15 20:29N 53°35' E 008°32'0 0.0
2018-Feb-15 19:59N 53°35' E 008°32'0 0.0
2018-Feb-15 19:29N 53°35' E 008°32'0 0.0
2018-Feb-15 18:59N 53°35' E 008°32'0 0.0
2018-Feb-15 18:29N 53°35' E 008°32'0 0.0
2018-Feb-15 17:58N 53°35' E 008°32'0 0.0
2018-Feb-15 17:31N 53°35' E 008°32'0 0.0
2018-Feb-15 16:59N 53°35' E 008°32'0 0.0
2018-Feb-15 16:30N 53°35' E 008°32'0 0.0
2018-Feb-15 16:00N 53°35' E 008°32'0 0.0
2018-Feb-15 15:30N 53°35' E 008°32'0 0.0
2018-Feb-15 15:00N 53°35' E 008°32'0 0.0
2018-Feb-15 14:30N 53°35' E 008°32'0 0.0
2018-Feb-15 14:00N 53°35' E 008°32'0 0.0
2018-Feb-15 13:30N 53°35' E 008°32'0 0.0
2018-Feb-15 13:00N 53°35' E 008°32'0 0.0
2018-Feb-15 12:30N 53°35' E 008°32'0 0.0
2018-Feb-15 12:00N 53°35' E 008°32'0 0.0
2018-Feb-15 11:30N 53°35' E 008°32'0 0.0
2018-Feb-15 11:00N 53°35' E 008°32'0 0.0
2018-Feb-15 10:28N 53°35' E 008°32'0 0.0
2018-Feb-15 09:58N 53°35' E 008°32'0 0.0
2018-Feb-15 09:28N 53°35' E 008°32'0 0.0
2018-Feb-15 08:58N 53°35' E 008°32'0 0.8
2018-Feb-15 08:30N 53°35' E 008°31'4 8.5
2018-Feb-15 08:00N 53°38' E 008°26'816.7
2018-Feb-15 07:30N 53°44' E 008°15'917.3
2018-Feb-15 07:00N 53°50' E 008°05'915.3
2018-Feb-15 06:25N 53°52' E 007°50'4 9.2
2018-Feb-15 06:00N 53°53' E 007°44'9316.9
2018-Feb-15 00:28N 53°31' E 005°11'817.7
2018-Feb-15 00:00N 53°29' E 004°57'918.4
2018-Feb-14 23:30N 53°25' E 004°44'1118.7
2018-Feb-14 22:53N 53°15' E 004°34'919.2
2018-Feb-14 22:27N 53°07' E 004°28'1019.2
2018-Feb-14 21:56N 52°59' E 004°20'819.3
2018-Feb-14 21:30N 52°51' E 004°13'1318.6
2018-Feb-14 20:49N 52°41' E 004°00'818.7
2018-Feb-14 20:24N 52°35' E 003°52'1618.9
2018-Feb-14 19:33N 52°22' E 003°37'119.3
2018-Feb-14 19:30N 52°21' E 003°37'1018.7
2018-Feb-14 18:58N 52°12' E 003°30'1119.6
2018-Feb-14 18:26N 52°02' E 003°26'1020.0
2018-Feb-14 17:55N 51°52' E 003°20'718.3
2018-Feb-14 17:30N 51°45' E 003°15'5 9.8
2018-Feb-14 17:00N 51°41' E 003°12'917.4
2018-Feb-14 16:28N 51°32' E 003°07'817.1
2018-Feb-14 16:00N 51°26' E 002°59'714.3
2018-Feb-14 15:30N 51°24' E 003°10'815.4
2018-Feb-14 15:01N 51°25' E 003°23'714.0
2018-Feb-14 14:31N 51°26' E 003°34'5 9.9
2018-Feb-14 14:00N 51°26' E 003°42'713.2
2018-Feb-14 13:30N 51°21' E 003°49'611.1
2018-Feb-14 13:00N 51°23' E 003°57'4 7.1
2018-Feb-14 12:30N 51°25' E 004°02'4 8.8
2018-Feb-14 12:00N 51°22' E 004°07'4 8.1
2018-Feb-14 11:30N 51°24' E 004°13'4 7.5
2018-Feb-14 11:00N 51°20' E 004°16'0 0.9
2018-Feb-14 10:29N 51°20' E 004°17'0 0.0
2018-Feb-14 10:01N 51°20' E 004°17'0 0.0
2018-Feb-14 09:30N 51°20' E 004°17'0 0.0
2018-Feb-14 08:58N 51°20' E 004°17'0 0.0
2018-Feb-14 08:25N 51°20' E 004°17'0 0.0
2018-Feb-14 08:01N 51°20' E 004°17'0 0.0
2018-Feb-14 07:30N 51°20' E 004°17'0 0.0
2018-Feb-14 07:01N 51°20' E 004°17'0 0.0
2018-Feb-14 06:29N 51°20' E 004°17'0 0.0
2018-Feb-14 06:01N 51°20' E 004°17'0 0.0
2018-Feb-14 05:30N 51°20' E 004°17'0 0.0
2018-Feb-14 05:00N 51°20' E 004°17'0 0.0
2018-Feb-14 04:31N 51°20' E 004°17'0 0.0
2018-Feb-14 03:58N 51°20' E 004°17'0 0.0
2018-Feb-14 03:30N 51°20' E 004°17'0 0.0
2018-Feb-14 03:00N 51°20' E 004°17'0 0.0
2018-Feb-14 02:31N 51°20' E 004°17'0 0.0
2018-Feb-14 02:00N 51°20' E 004°17'0 0.0
2018-Feb-14 01:31N 51°20' E 004°17'0 0.0
2018-Feb-14 01:00N 51°20' E 004°17'0 0.0
2018-Feb-14 00:30N 51°20' E 004°17'0 0.0
2018-Feb-13 23:57N 51°20' E 004°17'0 0.0
2018-Feb-13 23:31N 51°20' E 004°17'0 0.0
2018-Feb-13 23:00N 51°20' E 004°17'0 0.0
2018-Feb-13 22:31N 51°20' E 004°17'0 0.0
2018-Feb-13 22:00N 51°20' E 004°17'0 0.0
2018-Feb-13 21:27N 51°20' E 004°17'0 0.0
2018-Feb-13 21:01N 51°20' E 004°17'0 0.0
2018-Feb-13 20:30N 51°20' E 004°17'0 0.0
2018-Feb-13 20:00N 51°20' E 004°17'0 0.0
2018-Feb-13 19:31N 51°20' E 004°17'0 0.0
2018-Feb-13 19:00N 51°20' E 004°17'0 0.0
2018-Feb-13 18:31N 51°20' E 004°17'0 0.0
2018-Feb-13 17:57N 51°20' E 004°17'0 0.0
2018-Feb-13 17:30N 51°20' E 004°17'0 0.0
2018-Feb-13 17:01N 51°20' E 004°17'0 0.0
2018-Feb-13 16:28N 51°20' E 004°17'0 0.0
2018-Feb-13 16:01N 51°20' E 004°17'0 0.0
2018-Feb-13 15:30N 51°20' E 004°17'0 0.0
2018-Feb-13 14:59N 51°20' E 004°17'0 0.0
2018-Feb-13 14:30N 51°20' E 004°17'0 0.0
2018-Feb-13 14:01N 51°20' E 004°17'0 0.0
2018-Feb-13 13:31N 51°20' E 004°17'0 0.0
2018-Feb-13 13:01N 51°20' E 004°17'0 0.0
2018-Feb-13 12:30N 51°20' E 004°17'0 0.0
2018-Feb-13 12:01N 51°20' E 004°17'0 0.0
2018-Feb-13 11:31N 51°20' E 004°17'0 0.0
2018-Feb-13 11:01N 51°20' E 004°17'0 0.0
2018-Feb-13 10:31N 51°20' E 004°17'0 0.0
2018-Feb-13 10:01N 51°20' E 004°17'0 0.0
2018-Feb-13 09:28N 51°20' E 004°17'0 0.0
2018-Feb-13 09:01N 51°20' E 004°17'0 0.3
2018-Feb-13 08:30N 51°20' E 004°16'2 4.3
2018-Feb-13 08:00N 51°21' E 004°14'3 6.3
2018-Feb-13 07:30N 51°23' E 004°09'5 9.5
2018-Feb-13 07:00N 51°24' E 004°02'4 7.4
2018-Feb-13 06:30N 51°23' E 003°57'611.1
2018-Feb-13 06:00N 51°21' E 003°48'611.0
2018-Feb-13 05:30N 51°25' E 003°42'510.7
2018-Feb-13 05:00N 51°26' E 003°34'510.2
2018-Feb-13 04:30N 51°25' E 003°26'815.9
2018-Feb-13 04:00N 51°24' E 003°13'816.6
2018-Feb-13 03:30N 51°24' E 002°60'917.8
2018-Feb-13 03:00N 51°22' E 002°46'610.9
2018-Feb-13 02:29N 51°22' E 002°37'715.3
2018-Feb-13 02:00N 51°21' E 002°25'816.5
2018-Feb-13 01:30N 51°16' E 002°14'816.3
2018-Feb-13 01:00N 51°13' E 002°02'816.6
2018-Feb-13 00:30N 51°09' E 001°51'916.9
2018-Feb-13 00:00N 51°03' E 001°41'918.6
2018-Feb-12 23:30N 50°56' E 001°31'1018.9
2018-Feb-12 23:00N 50°47' E 001°25'1316.8
2018-Feb-12 22:12N 50°37' E 001°11'3117.7
2018-Feb-12 20:27N 50°24' E 000°27'818.8
2018-Feb-12 20:00N 50°23' E 000°14'919.1
2018-Feb-12 19:30N 50°21' W 000°00'1019.1
2018-Feb-12 19:00N 50°19' W 000°15'1019.4
2018-Feb-12 18:30N 50°18' W 000°30'1316.7
2018-Feb-12 17:45N 50°26' W 000°46'418.1
2018-Feb-12 17:30N 50°30' W 000°50'917.5
2018-Feb-12 17:00N 50°38' W 000°55'611.4
2018-Feb-12 16:31N 50°43' W 000°60'816.0
2018-Feb-12 16:01N 50°46' W 001°11'5 9.6
2018-Feb-12 15:30N 50°49' W 001°17'5 9.2
2018-Feb-12 15:01N 50°52' W 001°22'3 6.7
2018-Feb-12 14:30N 50°54' W 001°26'1 1.0
2018-Feb-12 13:55N 50°54' W 001°27'0 0.0
2018-Feb-12 13:30N 50°54' W 001°27'0 0.0
2018-Feb-12 12:59N 50°54' W 001°27'0 0.0
2018-Feb-12 12:29N 50°54' W 001°27'0 0.0
2018-Feb-12 11:47N 50°54' W 001°27'0 0.0
2018-Feb-12 11:18N 50°54' W 001°27'0 0.0
2018-Feb-12 10:57N 50°54' W 001°27'0 0.0
2018-Feb-12 10:30N 50°54' W 001°27'0 0.0
2018-Feb-12 09:59N 50°54' W 001°27'0 0.0
2018-Feb-12 09:26N 50°54' W 001°27'0 0.0
2018-Feb-12 08:59N 50°54' W 001°27'0 0.0
2018-Feb-12 08:26N 50°54' W 001°27'0 0.0
2018-Feb-12 07:59N 50°54' W 001°27'0 0.0
2018-Feb-12 07:26N 50°54' W 001°27'0 0.0
2018-Feb-12 06:59N 50°54' W 001°27'0 0.0
2018-Feb-12 06:05N 50°54' W 001°27'0 0.0
2018-Feb-12 04:47N 50°54' W 001°27'0 0.0
2018-Feb-12 04:23N 50°54' W 001°27'0 0.0
2018-Feb-12 03:53N 50°54' W 001°27'0 0.0
2018-Feb-12 03:23N 50°54' W 001°27'0 0.0
2018-Feb-12 02:53N 50°54' W 001°27'0 0.0
2018-Feb-12 02:23N 50°54' W 001°27'0 0.0
2018-Feb-12 01:53N 50°54' W 001°27'0 0.0
2018-Feb-12 01:20N 50°54' W 001°27'0 0.0
2018-Feb-12 00:53N 50°54' W 001°27'0 0.0
2018-Feb-12 00:20N 50°54' W 001°27'0 0.0
2018-Feb-11 23:53N 50°54' W 001°27'0 0.0
2018-Feb-11 23:26N 50°54' W 001°27'1 3.1
2018-Feb-11 23:00N 50°54' W 001°25'4 8.1
2018-Feb-11 22:30N 50°51' W 001°21'5 9.3
2018-Feb-11 22:01N 50°47' W 001°19'815.1
2018-Feb-11 21:31N 50°45' W 001°07'714.1
2018-Feb-11 21:01N 50°41' W 000°58'510.8
2018-Feb-11 20:31N 50°36' W 000°58'5 9.8
2018-Feb-11 20:01N 50°31' W 001°01'612.1
2018-Feb-11 19:30N 50°28' W 001°09'815.9
2018-Feb-11 19:00N 50°26' W 001°21'1016.2
2018-Feb-11 18:25N 50°23' W 001°35'717.3
2018-Feb-11 18:00N 50°21' W 001°46'4234.9
2018-Feb-11 18:00N 50°18' W 001°42'3423.2 280 / 151010.110.8 5.5-13.6
2018-Feb-11 16:33N 50°12' W 002°34'320.7
2018-Feb-11 16:24N 50°11' W 002°38'820.6
2018-Feb-11 15:59N 50°09' W 002°51'1020.5
2018-Feb-11 15:31N 50°06' W 003°06'1121.1
2018-Feb-11 15:01N 50°03' W 003°21'1121.0
2018-Feb-11 14:30N 49°60' W 003°37'1021.0
2018-Feb-11 14:00N 49°57' W 003°53'1120.8
2018-Feb-11 13:29N 49°54' W 004°09'1020.7
2018-Feb-11 13:00N 49°51' W 004°23'50816.4
2018-Feb-10 06:00N 49°42' W 017°30'   260 / 181012.9 14.0 9.7

Dump ship's entire track history